createdAt,value
2019-04-16T01:21:07.645Z,10.60
2019-04-16T01:23:56.162Z,9.20
2019-04-16T01:26:45.012Z,9.40
2019-04-16T01:29:33.963Z,9.60
2019-04-16T01:32:42.811Z,9.70
2019-04-16T01:35:51.511Z,9.80
2019-04-16T01:53:09.240Z,9.80
2019-04-16T01:55:57.748Z,8.10
2019-04-16T03:18:40.979Z,7.70
2019-04-16T03:27:07.054Z,6.40
2019-04-16T03:29:55.802Z,6.90
2019-04-16T03:32:51.538Z,6.80
2019-04-16T03:35:40.195Z,6.70
2019-04-16T03:38:28.348Z,6.80
2019-04-16T03:41:16.699Z,6.90
2019-04-16T03:44:05.627Z,6.90
2019-04-16T03:46:54.254Z,7.20
2019-04-16T03:49:42.600Z,6.80
2019-04-16T03:52:31.941Z,6.60
2019-04-16T03:55:25.277Z,6.30
2019-04-16T03:58:11.087Z,6.50
2019-04-16T04:00:58.989Z,6.40
2019-04-16T04:03:47.336Z,6.00
2019-04-16T04:06:36.505Z,5.90
2019-04-16T04:34:40.775Z,5.70
2019-04-16T04:37:31.249Z,6.20
2019-04-16T04:43:17.702Z,5.90
2019-04-16T04:46:06.502Z,5.70
2019-04-16T04:48:59.845Z,5.50
2019-04-16T04:51:45.166Z,5.50
2019-04-16T04:54:33.334Z,5.60
2019-04-16T04:57:21.758Z,5.80
2019-04-16T05:00:10.730Z,6.00
2019-04-16T05:02:59.746Z,5.90
2019-04-16T05:47:58.919Z,6.00
2019-04-16T06:46:48.944Z,7.40
2019-04-16T08:10:27.563Z,13.00
2019-04-16T08:41:25.004Z,17.30
2019-04-16T08:58:17.286Z,19.80
2019-04-16T09:01:06.251Z,20.20
2019-04-16T09:03:55.227Z,20.90
2019-04-16T09:06:46.359Z,20.20
2019-04-16T09:09:43.946Z,20.90
2019-04-16T09:12:32.342Z,20.90
2019-04-16T09:15:27.130Z,21.20
2019-04-16T09:18:32.734Z,21.00
2019-04-16T09:21:21.204Z,20.90
2019-04-16T09:24:46.766Z,20.60
2019-04-16T09:27:37.762Z,20.60
2019-04-16T09:30:43.500Z,20.40
2019-04-16T09:36:48.756Z,20.60
2019-04-16T09:39:51.822Z,20.50
2019-04-16T09:42:40.276Z,21.20
2019-04-16T09:45:28.944Z,20.40
2019-04-16T09:48:17.279Z,20.50
2019-04-16T09:51:18.675Z,20.40
2019-04-16T09:54:06.400Z,20.50
2019-04-16T09:56:56.768Z,20.30
2019-04-16T09:59:50.101Z,19.90
2019-04-16T10:02:39.028Z,20.60
2019-04-16T10:05:29.571Z,20.30
2019-04-16T10:08:17.383Z,19.90
2019-04-16T10:11:06.581Z,20.10
2019-04-16T10:13:55.403Z,20.10
2019-04-16T10:16:43.597Z,20.80
2019-04-16T10:19:32.063Z,20.20
2019-04-16T10:22:20.102Z,20.20
2019-04-16T10:25:13.014Z,20.30
2019-04-16T10:28:08.026Z,19.20
2019-04-16T10:30:57.761Z,19.60
2019-04-16T10:33:46.590Z,19.70
2019-04-16T10:36:37.981Z,21.50
2019-04-16T10:39:47.447Z,21.90
2019-04-16T10:42:54.950Z,21.20
2019-04-16T10:45:52.245Z,20.30
2019-04-16T10:49:12.026Z,20.10
2019-04-16T10:52:34.361Z,20.10
2019-04-16T10:55:31.236Z,19.60
2019-04-16T10:58:42.426Z,19.50
2019-04-16T11:01:38.234Z,19.80
2019-04-16T11:04:44.795Z,19.30
2019-04-16T11:07:33.543Z,19.50
2019-04-16T11:10:21.724Z,19.20
2019-04-16T11:13:16.578Z,19.40
2019-04-16T11:16:10.824Z,19.90
2019-04-16T11:18:59.128Z,20.00
2019-04-16T11:21:47.869Z,20.30
2019-04-16T11:24:35.871Z,20.20
2019-04-16T11:27:24.801Z,20.70
2019-04-16T11:30:28.560Z,22.00
2019-04-16T11:33:16.903Z,22.40
2019-04-16T11:36:17.333Z,21.00
2019-04-16T11:38:55.398Z,21.00
2019-04-16T11:41:44.696Z,20.90
2019-04-16T11:44:33.860Z,21.10
2019-04-16T11:47:22.770Z,20.90
2019-04-16T11:50:11.315Z,21.10
2019-04-16T11:52:59.800Z,20.80
2019-04-16T11:55:48.787Z,21.00
2019-04-16T11:58:43.573Z,21.20
2019-04-16T12:02:01.207Z,21.50
2019-04-16T12:05:06.832Z,20.70
2019-04-16T12:08:02.491Z,20.10
2019-04-16T12:11:09.725Z,20.90
2019-04-16T12:14:11.254Z,20.80
2019-04-16T12:17:21.916Z,21.60
2019-04-16T12:20:28.796Z,22.70
2019-04-16T12:23:38.966Z,22.50
2019-04-16T12:26:49.288Z,20.80
2019-04-16T12:29:59.591Z,21.30
2019-04-16T12:32:58.928Z,21.40
2019-04-16T12:36:06.262Z,21.80
2019-04-16T12:39:01.125Z,22.00
2019-04-16T12:42:02.784Z,20.70
2019-04-16T12:44:54.482Z,20.60
2019-04-16T12:47:47.790Z,20.40
2019-04-16T12:50:48.021Z,20.00
2019-04-16T12:54:05.142Z,20.10
2019-04-16T12:57:19.047Z,20.70
2019-04-16T13:00:36.905Z,20.40
2019-04-16T13:03:39.841Z,20.40
2019-04-16T13:06:44.934Z,20.90
2019-04-16T13:09:41.959Z,21.50
2019-04-16T13:12:44.482Z,22.00
2019-04-16T13:15:45.834Z,23.70
2019-04-16T13:24:49.944Z,24.80
2019-04-16T13:27:39.234Z,25.80
2019-04-16T13:30:28.368Z,23.20
2019-04-16T13:33:16.850Z,22.60
2019-04-16T13:36:05.895Z,22.50
2019-04-16T13:39:16.571Z,22.50
2019-04-16T13:42:04.759Z,22.80
2019-04-16T13:45:25.939Z,22.40
2019-04-16T13:48:27.467Z,23.00
2019-04-16T13:51:18.981Z,22.40
2019-04-16T13:54:28.108Z,22.70
2019-04-16T13:57:19.260Z,23.40
2019-04-16T14:00:17.931Z,24.10
2019-04-16T14:03:11.050Z,22.80
2019-04-16T14:06:00.263Z,23.90
2019-04-16T14:08:48.969Z,24.00
2019-04-16T14:11:37.154Z,23.40
2019-04-16T14:14:25.841Z,23.60
2019-04-16T14:17:17.981Z,23.10
2019-04-16T14:20:08.693Z,23.00
2019-04-16T14:22:57.560Z,23.00
2019-04-16T14:25:45.813Z,23.20
2019-04-16T14:28:35.267Z,23.00
2019-04-16T14:31:25.369Z,23.20
2019-04-16T14:34:45.156Z,23.50
2019-04-16T14:37:33.984Z,23.10
2019-04-16T14:40:23.173Z,23.20
2019-04-16T14:43:13.679Z,21.40
2019-04-16T14:46:02.419Z,21.60
2019-04-16T14:48:51.065Z,22.40
2019-04-16T14:51:39.172Z,23.90
2019-04-16T14:54:32.867Z,25.60
2019-04-16T14:57:21.718Z,25.00
2019-04-16T15:00:39.259Z,23.20
2019-04-16T15:03:53.149Z,24.50
2019-04-16T15:06:49.187Z,24.90
2019-04-16T15:10:02.444Z,23.20
2019-04-16T15:13:01.644Z,23.20
2019-04-16T15:16:14.202Z,23.60
2019-04-16T15:19:21.211Z,25.10
2019-04-16T15:22:32.106Z,26.10
2019-04-16T15:25:27.699Z,25.10
2019-04-16T15:28:20.113Z,26.00
2019-04-16T15:31:17.241Z,26.40
2019-04-16T15:34:14.527Z,26.30
2019-04-16T15:37:28.138Z,26.40
2019-04-16T15:40:30.543Z,26.60
2019-04-16T15:43:41.478Z,24.80
2019-04-16T15:46:58.718Z,24.00
2019-04-16T15:49:56.042Z,22.90
2019-04-16T15:53:13.230Z,23.70
2019-04-16T15:56:12.083Z,23.60
2019-04-16T15:59:07.636Z,23.90
2019-04-16T16:02:31.739Z,23.60
2019-04-16T16:05:25.871Z,23.20
2019-04-16T16:08:22.462Z,23.70
2019-04-16T16:11:17.672Z,22.80
2019-04-16T16:14:06.087Z,21.20
2019-04-16T16:16:55.135Z,21.70
2019-04-16T16:19:44.087Z,22.20
2019-04-16T16:22:32.794Z,21.90
2019-04-16T16:25:20.611Z,21.00
2019-04-16T16:28:09.031Z,20.60
2019-04-16T16:30:57.344Z,20.70
2019-04-16T16:33:45.411Z,20.10
2019-04-16T16:36:36.319Z,20.10
2019-04-16T16:39:23.086Z,19.70
2019-04-16T16:42:12.432Z,19.60
2019-04-16T16:45:01.617Z,19.60
2019-04-16T18:25:55.453Z,19.60
2019-04-16T18:29:00.538Z,17.40
2019-04-16T18:31:56.422Z,17.00
2019-04-16T18:34:56.491Z,16.90
2019-04-16T18:38:07.624Z,16.70
2019-04-16T18:41:18.549Z,16.30
2019-04-16T18:44:24.803Z,16.50
2019-04-16T18:47:37.978Z,16.50
2019-04-16T18:50:30.180Z,16.20
2019-04-16T18:53:18.689Z,16.20
2019-04-16T18:56:07.427Z,16.30
2019-04-16T18:58:56.081Z,16.10
2019-04-16T19:01:47.494Z,16.10
2019-04-16T19:15:59.368Z,16.10
2019-04-16T19:18:54.065Z,15.60
2019-04-16T19:21:42.526Z,15.50
2019-04-16T19:24:32.253Z,15.50
2019-04-16T19:27:21.209Z,15.50
2019-04-16T19:30:10.565Z,15.20
2019-04-16T19:33:00.791Z,15.20
2019-04-16T19:35:51.878Z,15.20
2019-04-16T19:38:40.682Z,15.20
2019-04-16T19:41:29.391Z,15.30
2019-04-16T19:44:18.560Z,15.40
2019-04-16T19:47:07.378Z,15.20
2019-04-16T19:49:56.502Z,15.10
2019-04-16T19:52:45.857Z,15.10
2019-04-16T19:55:34.602Z,15.00
2019-04-16T20:01:12.398Z,15.00
2019-04-16T20:06:49.045Z,14.80
2019-04-16T20:09:39.216Z,14.50
2019-04-16T20:12:28.800Z,14.70
2019-04-16T20:15:18.476Z,14.50
2019-04-16T20:18:07.929Z,14.60
2019-04-16T20:21:00.333Z,14.40
2019-04-16T20:23:47.298Z,14.50
2019-04-16T20:26:35.629Z,14.40
2019-04-16T20:29:23.579Z,14.60
2019-04-16T20:32:11.874Z,14.20
2019-04-16T20:35:00.568Z,14.30
2019-04-16T20:37:50.387Z,14.20
2019-04-16T20:40:38.679Z,14.40
2019-04-16T20:43:26.808Z,14.30
2019-04-16T20:46:14.753Z,14.10
2019-04-16T20:49:09.282Z,14.00
2019-04-16T20:51:56.467Z,14.00
2019-04-16T20:54:49.629Z,14.00
2019-04-16T20:57:39.212Z,13.90
2019-04-16T21:00:30.263Z,13.80
2019-04-16T21:03:22.306Z,13.90
2019-04-16T21:06:10.090Z,13.80
2019-04-16T21:08:58.958Z,14.00
2019-04-16T21:11:47.837Z,14.10
2019-04-16T21:14:36.336Z,13.80
2019-04-16T21:17:25.403Z,13.80
2019-04-16T21:20:19.370Z,13.80
2019-04-16T21:23:04.093Z,13.80
2019-04-16T21:25:52.632Z,13.70
2019-04-16T21:28:52.951Z,13.60
2019-04-16T21:31:44.412Z,13.60
2019-04-16T21:34:47.995Z,13.70
2019-04-16T21:37:51.592Z,13.60
2019-04-16T21:40:39.899Z,13.50
2019-04-16T21:43:27.835Z,13.50
2019-04-16T21:46:20.167Z,13.30
2019-04-16T21:49:08.300Z,13.40
2019-04-16T21:52:08.943Z,13.50
2019-04-16T21:55:02.472Z,13.50
2019-04-16T21:57:47.951Z,13.40
2019-04-16T22:01:04.072Z,13.50
2019-04-16T22:03:56.754Z,13.40
2019-04-16T22:06:46.006Z,13.30
2019-04-16T22:09:35.070Z,13.20
2019-04-16T22:12:23.197Z,13.20
2019-04-16T22:15:12.255Z,13.30
2019-04-16T22:18:00.957Z,13.30
2019-04-16T22:20:49.242Z,13.30
2019-04-16T22:23:37.459Z,13.30
2019-04-16T22:26:27.195Z,13.50
2019-04-16T22:29:16.436Z,13.40
2019-04-16T22:32:05.420Z,13.40
2019-04-16T22:34:54.122Z,13.30
2019-04-16T22:37:42.933Z,13.10
2019-04-16T22:40:44.226Z,13.20
2019-04-16T22:43:50.347Z,13.10
2019-04-16T22:46:51.291Z,13.40
2019-04-16T22:49:39.709Z,13.80
2019-04-16T22:52:28.706Z,13.80
2019-04-16T22:55:16.835Z,13.80
2019-04-16T22:58:05.365Z,14.00
2019-04-16T23:01:03.596Z,14.20
2019-04-16T23:03:53.322Z,14.10
2019-04-16T23:06:41.761Z,14.00
2019-04-16T23:09:31.036Z,13.90
2019-04-16T23:12:20.074Z,14.10
2019-04-16T23:15:10.745Z,14.10
2019-04-16T23:17:59.036Z,13.70
2019-04-16T23:20:47.018Z,13.70
2019-04-16T23:23:35.327Z,13.40
2019-04-16T23:26:32.151Z,13.20
2019-04-16T23:29:17.010Z,13.30
2019-04-16T23:32:05.759Z,13.50
2019-04-16T23:34:54.671Z,13.60
2019-04-16T23:37:43.451Z,13.60
2019-04-16T23:40:31.674Z,13.60
2019-04-16T23:43:33.630Z,13.40
2019-04-16T23:46:37.752Z,13.60
2019-04-16T23:49:38.554Z,13.70
2019-04-16T23:52:35.338Z,13.80
2019-04-16T23:55:50.295Z,13.30
2019-04-16T23:58:47.223Z,13.00
